sensor_id;sensor_type;location;lat;lon;timestamp;temperature;humidity
30851;DHT22;17567;48.382;9.102;2023-07-31T00:01:56;11.90;99.90
30851;DHT22;17567;48.382;9.102;2023-07-31T00:06:56;11.90;99.90
30851;DHT22;17567;48.382;9.102;2023-07-31T00:11:57;11.90;99.90
30851;DHT22;17567;48.382;9.102;2023-07-31T00:16:57;11.60;99.90
30851;DHT22;17567;48.382;9.102;2023-07-31T00:21:58;11.70;99.90
30851;DHT22;17567;48.382;9.102;2023-07-31T00:26:58;11.70;99.90
30851;DHT22;17567;48.382;9.102;2023-07-31T00:31:59;11.50;99.90
30851;DHT22;17567;48.382;9.102;2023-07-31T00:37:00;11.60;99.90
30851;DHT22;17567;48.382;9.102;2023-07-31T00:42:00;11.30;99.90
30851;DHT22;17567;48.382;9.102;2023-07-31T00:47:01;11.30;99.90
30851;DHT22;17567;48.382;9.102;2023-07-31T00:52:02;11.40;99.90
30851;DHT22;17567;48.382;9.102;2023-07-31T00:57:03;11.30;99.90
30851;DHT22;17567;48.382;9.102;2023-07-31T01:02:04;11.40;99.90
30851;DHT22;17567;48.382;9.102;2023-07-31T01:07:17;11.30;99.90
30851;DHT22;17567;48.382;9.102;2023-07-31T01:12:20;11.20;99.90
30851;DHT22;17567;48.382;9.102;2023-07-31T01:17:22;11.20;99.90
30851;DHT22;17567;48.382;9.102;2023-07-31T01:22:48;11.20;99.90
30851;DHT22;17567;48.382;9.102;2023-07-31T01:28:05;11.30;99.90
30851;DHT22;17567;48.382;9.102;2023-07-31T01:33:07;11.40;99.90
30851;DHT22;17567;48.382;9.102;2023-07-31T01:38:08;11.30;99.90
30851;DHT22;17567;48.382;9.102;2023-07-31T01:43:09;11.10;99.90
30851;DHT22;17567;48.382;9.102;2023-07-31T01:48:10;11.10;99.90
30851;DHT22;17567;48.382;9.102;2023-07-31T01:53:11;11.00;99.90
30851;DHT22;17567;48.382;9.102;2023-07-31T01:58:12;11.00;99.90
30851;DHT22;17567;48.382;9.102;2023-07-31T02:03:13;11.00;99.90
30851;DHT22;17567;48.382;9.102;2023-07-31T02:08:14;11.00;99.90
30851;DHT22;17567;48.382;9.102;2023-07-31T02:13:15;11.00;99.90
30851;DHT22;17567;48.382;9.102;2023-07-31T02:18:16;11.00;99.90
30851;DHT22;17567;48.382;9.102;2023-07-31T02:23:17;11.00;99.90
30851;DHT22;17567;48.382;9.102;2023-07-31T02:28:18;10.80;99.90
30851;DHT22;17567;48.382;9.102;2023-07-31T02:33:19;10.80;99.90
30851;DHT22;17567;48.382;9.102;2023-07-31T02:38:19;10.80;99.90
30851;DHT22;17567;48.382;9.102;2023-07-31T02:43:20;10.90;99.90
30851;DHT22;17567;48.382;9.102;2023-07-31T02:48:20;10.80;99.90
30851;DHT22;17567;48.382;9.102;2023-07-31T02:53:21;10.70;99.90
30851;DHT22;17567;48.382;9.102;2023-07-31T02:58:23;10.90;99.90
30851;DHT22;17567;48.382;9.102;2023-07-31T03:03:24;10.80;99.90
30851;DHT22;17567;48.382;9.102;2023-07-31T03:08:24;10.80;99.90
30851;DHT22;17567;48.382;9.102;2023-07-31T03:13:25;10.80;99.90
30851;DHT22;17567;48.382;9.102;2023-07-31T03:18:25;10.80;99.90
30851;DHT22;17567;48.382;9.102;2023-07-31T03:23:26;10.80;99.90
30851;DHT22;17567;48.382;9.102;2023-07-31T03:28:26;10.80;99.90
30851;DHT22;17567;48.382;9.102;2023-07-31T03:33:27;10.80;99.90
30851;DHT22;17567;48.382;9.102;2023-07-31T03:38:28;10.80;99.90
30851;DHT22;17567;48.382;9.102;2023-07-31T03:43:28;10.90;99.90
30851;DHT22;17567;48.382;9.102;2023-07-31T03:48:29;10.90;99.90
30851;DHT22;17567;48.382;9.102;2023-07-31T03:53:30;10.90;99.90
30851;DHT22;17567;48.382;9.102;2023-07-31T03:58:30;11.00;99.90
30851;DHT22;17567;48.382;9.102;2023-07-31T04:03:31;11.00;99.90
30851;DHT22;17567;48.382;9.102;2023-07-31T04:08:32;11.00;99.90
30851;DHT22;17567;48.382;9.102;2023-07-31T04:13:32;11.00;99.90
30851;DHT22;17567;48.382;9.102;2023-07-31T04:18:34;11.10;99.90
30851;DHT22;17567;48.382;9.102;2023-07-31T04:23:34;11.10;99.90
30851;DHT22;17567;48.382;9.102;2023-07-31T04:28:35;11.10;99.90
30851;DHT22;17567;48.382;9.102;2023-07-31T04:33:35;11.20;99.90
30851;DHT22;17567;48.382;9.102;2023-07-31T04:38:36;11.20;99.90
30851;DHT22;17567;48.382;9.102;2023-07-31T04:43:37;11.20;99.90
30851;DHT22;17567;48.382;9.102;2023-07-31T04:48:39;11.30;99.90
30851;DHT22;17567;48.382;9.102;2023-07-31T04:53:40;11.30;99.90
30851;DHT22;17567;48.382;9.102;2023-07-31T04:58:40;11.50;99.90
30851;DHT22;17567;48.382;9.102;2023-07-31T05:03:41;11.50;99.90
30851;DHT22;17567;48.382;9.102;2023-07-31T05:08:41;11.50;99.90
30851;DHT22;17567;48.382;9.102;2023-07-31T05:13:42;11.50;99.90
30851;DHT22;17567;48.382;9.102;2023-07-31T05:18:43;11.60;99.90
30851;DHT22;17567;48.382;9.102;2023-07-31T05:23:43;11.70;99.90
30851;DHT22;17567;48.382;9.102;2023-07-31T05:28:44;11.80;99.90
30851;DHT22;17567;48.382;9.102;2023-07-31T05:33:45;12.00;99.90
30851;DHT22;17567;48.382;9.102;2023-07-31T05:48:49;12.50;99.90
30851;DHT22;17567;48.382;9.102;2023-07-31T05:53:50;12.70;99.90
30851;DHT22;17567;48.382;9.102;2023-07-31T05:58:51;12.80;99.90
30851;DHT22;17567;48.382;9.102;2023-07-31T06:03:51;12.90;99.90
30851;DHT22;17567;48.382;9.102;2023-07-31T06:08:52;13.10;99.90
30851;DHT22;17567;48.382;9.102;2023-07-31T06:13:52;13.50;99.90
30851;DHT22;17567;48.382;9.102;2023-07-31T06:18:53;13.70;99.90
30851;DHT22;17567;48.382;9.102;2023-07-31T06:23:54;13.90;99.90
30851;DHT22;17567;48.382;9.102;2023-07-31T06:28:54;14.20;99.90
30851;DHT22;17567;48.382;9.102;2023-07-31T06:33:55;14.40;99.90
30851;DHT22;17567;48.382;9.102;2023-07-31T06:38:55;14.50;99.90
30851;DHT22;17567;48.382;9.102;2023-07-31T06:48:59;14.90;99.90
30851;DHT22;17567;48.382;9.102;2023-07-31T07:04:04;15.90;99.90
30851;DHT22;17567;48.382;9.102;2023-07-31T07:09:05;16.00;99.90
30851;DHT22;17567;48.382;9.102;2023-07-31T07:14:06;16.10;99.90
30851;DHT22;17567;48.382;9.102;2023-07-31T07:19:06;16.30;99.90
30851;DHT22;17567;48.382;9.102;2023-07-31T07:24:07;16.40;99.90
30851;DHT22;17567;48.382;9.102;2023-07-31T07:29:07;16.90;99.90
30851;DHT22;17567;48.382;9.102;2023-07-31T07:34:08;17.10;99.90
30851;DHT22;17567;48.382;9.102;2023-07-31T07:39:10;17.30;99.90
30851;DHT22;17567;48.382;9.102;2023-07-31T07:44:11;17.50;99.90
30851;DHT22;17567;48.382;9.102;2023-07-31T07:49:12;17.70;99.90
30851;DHT22;17567;48.382;9.102;2023-07-31T07:54:13;17.70;99.90
30851;DHT22;17567;48.382;9.102;2023-07-31T07:59:14;17.80;99.90
30851;DHT22;17567;48.382;9.102;2023-07-31T08:04:14;17.90;99.90
30851;DHT22;17567;48.382;9.102;2023-07-31T08:09:15;17.70;99.90
30851;DHT22;17567;48.382;9.102;2023-07-31T08:14:16;17.70;99.90
30851;DHT22;17567;48.382;9.102;2023-07-31T08:19:16;17.70;99.90
30851;DHT22;17567;48.382;9.102;2023-07-31T08:24:17;17.90;99.90
30851;DHT22;17567;48.382;9.102;2023-07-31T08:44:23;18.50;99.90
30851;DHT22;17567;48.382;9.102;2023-07-31T08:54:29;18.80;99.90
30851;DHT22;17567;48.382;9.102;2023-07-31T08:59:31;18.90;99.90
30851;DHT22;17567;48.382;9.102;2023-07-31T09:04:34;19.10;99.90
30851;DHT22;17567;48.382;9.102;2023-07-31T09:09:35;18.80;99.90
30851;DHT22;17567;48.382;9.102;2023-07-31T09:29:58;19.60;99.90
30851;DHT22;17567;48.382;9.102;2023-07-31T09:34:59;19.90;99.90
30851;DHT22;17567;48.382;9.102;2023-07-31T10:00:15;19.60;99.90
30851;DHT22;17567;48.382;9.102;2023-07-31T10:25:27;20.70;99.90
30851;DHT22;17567;48.382;9.102;2023-07-31T10:30:31;20.90;99.90
30851;DHT22;17567;48.382;9.102;2023-07-31T10:35:33;21.00;99.90
30851;DHT22;17567;48.382;9.102;2023-07-31T10:40:33;21.10;99.90
30851;DHT22;17567;48.382;9.102;2023-07-31T10:45:36;21.10;99.90
30851;DHT22;17567;48.382;9.102;2023-07-31T10:50:38;21.40;99.90
30851;DHT22;17567;48.382;9.102;2023-07-31T10:55:42;21.60;99.90
30851;DHT22;17567;48.382;9.102;2023-07-31T11:00:46;21.70;99.90
30851;DHT22;17567;48.382;9.102;2023-07-31T11:06:00;22.10;99.90
30851;DHT22;17567;48.382;9.102;2023-07-31T11:16:03;22.10;99.90
30851;DHT22;17567;48.382;9.102;2023-07-31T11:41:19;23.30;99.90
30851;DHT22;17567;48.382;9.102;2023-07-31T11:46:20;23.20;99.90
30851;DHT22;17567;48.382;9.102;2023-07-31T11:51:21;23.30;99.90
30851;DHT22;17567;48.382;9.102;2023-07-31T11:56:23;23.50;99.90
30851;DHT22;17567;48.382;9.102;2023-07-31T12:06:34;23.30;99.90
30851;DHT22;17567;48.382;9.102;2023-07-31T12:11:47;23.30;99.90
30851;DHT22;17567;48.382;9.102;2023-07-31T12:16:54;23.00;99.90
30851;DHT22;17567;48.382;9.102;2023-07-31T12:21:55;23.20;99.90
30851;DHT22;17567;48.382;9.102;2023-07-31T12:26:56;23.10;99.90
30851;DHT22;17567;48.382;9.102;2023-07-31T12:31:56;23.00;99.90
30851;DHT22;17567;48.382;9.102;2023-07-31T12:36:57;22.80;99.90
30851;DHT22;17567;48.382;9.102;2023-07-31T12:41:58;22.90;99.90
30851;DHT22;17567;48.382;9.102;2023-07-31T12:46:59;22.80;99.90
30851;DHT22;17567;48.382;9.102;2023-07-31T12:52:00;23.10;99.90
30851;DHT22;17567;48.382;9.102;2023-07-31T12:57:01;23.50;99.90
30851;DHT22;17567;48.382;9.102;2023-07-31T13:07:03;23.40;99.90
30851;DHT22;17567;48.382;9.102;2023-07-31T13:27:09;23.60;99.90
30851;DHT22;17567;48.382;9.102;2023-07-31T13:32:10;23.60;99.90
30851;DHT22;17567;48.382;9.102;2023-07-31T13:37:11;23.60;99.90
30851;DHT22;17567;48.382;9.102;2023-07-31T13:42:12;23.80;99.90
30851;DHT22;17567;48.382;9.102;2023-07-31T13:47:12;23.80;99.90
30851;DHT22;17567;48.382;9.102;2023-07-31T13:52:13;23.70;99.90
30851;DHT22;17567;48.382;9.102;2023-07-31T13:57:14;23.30;99.90
30851;DHT22;17567;48.382;9.102;2023-07-31T14:02:14;23.10;99.90
30851;DHT22;17567;48.382;9.102;2023-07-31T14:07:15;22.80;99.90
30851;DHT22;17567;48.382;9.102;2023-07-31T14:12:17;22.80;99.90
30851;DHT22;17567;48.382;9.102;2023-07-31T14:17:18;23.00;99.90
30851;DHT22;17567;48.382;9.102;2023-07-31T14:22:31;23.00;99.90
30851;DHT22;17567;48.382;9.102;2023-07-31T14:27:35;22.70;99.90
30851;DHT22;17567;48.382;9.102;2023-07-31T14:32:36;22.60;99.90
30851;DHT22;17567;48.382;9.102;2023-07-31T14:37:42;22.60;99.90
30851;DHT22;17567;48.382;9.102;2023-07-31T14:42:43;22.50;99.90
30851;DHT22;17567;48.382;9.102;2023-07-31T14:47:43;22.50;99.90
30851;DHT22;17567;48.382;9.102;2023-07-31T14:57:48;22.30;99.90
30851;DHT22;17567;48.382;9.102;2023-07-31T15:02:50;22.20;99.90
30851;DHT22;17567;48.382;9.102;2023-07-31T15:12:55;21.90;99.90
30851;DHT22;17567;48.382;9.102;2023-07-31T15:17:56;21.80;99.90
30851;DHT22;17567;48.382;9.102;2023-07-31T15:22:57;21.80;99.90
30851;DHT22;17567;48.382;9.102;2023-07-31T15:27:57;21.90;99.90
30851;DHT22;17567;48.382;9.102;2023-07-31T15:32:59;21.80;99.90
30851;DHT22;17567;48.382;9.102;2023-07-31T15:37:59;21.80;99.90
30851;DHT22;17567;48.382;9.102;2023-07-31T15:43:00;21.90;99.90
30851;DHT22;17567;48.382;9.102;2023-07-31T15:48:02;21.70;99.90
30851;DHT22;17567;48.382;9.102;2023-07-31T15:53:03;21.80;99.90
30851;DHT22;17567;48.382;9.102;2023-07-31T15:58:04;22.10;99.90
30851;DHT22;17567;48.382;9.102;2023-07-31T16:03:04;22.00;99.90
30851;DHT22;17567;48.382;9.102;2023-07-31T16:08:05;22.00;99.90
30851;DHT22;17567;48.382;9.102;2023-07-31T16:13:06;21.90;99.90
30851;DHT22;17567;48.382;9.102;2023-07-31T16:18:06;21.90;99.90
30851;DHT22;17567;48.382;9.102;2023-07-31T16:23:07;22.10;99.90
30851;DHT22;17567;48.382;9.102;2023-07-31T16:28:08;22.30;99.90
30851;DHT22;17567;48.382;9.102;2023-07-31T16:33:09;22.20;99.90
30851;DHT22;17567;48.382;9.102;2023-07-31T16:38:09;22.60;99.90
30851;DHT22;17567;48.382;9.102;2023-07-31T16:43:10;23.10;99.90
30851;DHT22;17567;48.382;9.102;2023-07-31T16:48:11;23.10;99.90
30851;DHT22;17567;48.382;9.102;2023-07-31T16:53:11;23.10;99.90
30851;DHT22;17567;48.382;9.102;2023-07-31T16:58:12;23.30;99.90
30851;DHT22;17567;48.382;9.102;2023-07-31T17:03:13;23.20;99.90
30851;DHT22;17567;48.382;9.102;2023-07-31T17:08:13;23.10;99.90
30851;DHT22;17567;48.382;9.102;2023-07-31T17:18:18;23.00;99.90
30851;DHT22;17567;48.382;9.102;2023-07-31T17:23:19;22.90;99.90
30851;DHT22;17567;48.382;9.102;2023-07-31T17:28:19;22.70;99.90
30851;DHT22;17567;48.382;9.102;2023-07-31T17:33:20;22.70;99.90
30851;DHT22;17567;48.382;9.102;2023-07-31T17:38:21;22.60;99.90
30851;DHT22;17567;48.382;9.102;2023-07-31T17:48:22;22.00;99.90
30851;DHT22;17567;48.382;9.102;2023-07-31T17:53:23;21.70;99.90
30851;DHT22;17567;48.382;9.102;2023-07-31T17:58:24;21.80;99.90
30851;DHT22;17567;48.382;9.102;2023-07-31T18:03:24;21.90;99.90
30851;DHT22;17567;48.382;9.102;2023-07-31T18:13:27;21.50;99.90
30851;DHT22;17567;48.382;9.102;2023-07-31T18:18:27;21.50;99.90
30851;DHT22;17567;48.382;9.102;2023-07-31T18:23:28;21.30;99.90
30851;DHT22;17567;48.382;9.102;2023-07-31T18:28:29;21.20;99.90
30851;DHT22;17567;48.382;9.102;2023-07-31T18:38:33;21.00;99.90
30851;DHT22;17567;48.382;9.102;2023-07-31T18:43:33;21.00;99.90
30851;DHT22;17567;48.382;9.102;2023-07-31T18:48:34;20.80;99.90
30851;DHT22;17567;48.382;9.102;2023-07-31T18:53:35;20.70;99.90
30851;DHT22;17567;48.382;9.102;2023-07-31T18:58:35;20.60;99.90
30851;DHT22;17567;48.382;9.102;2023-07-31T19:03:36;20.50;99.90
30851;DHT22;17567;48.382;9.102;2023-07-31T19:08:38;20.70;99.90
30851;DHT22;17567;48.382;9.102;2023-07-31T19:13:40;20.30;99.90
30851;DHT22;17567;48.382;9.102;2023-07-31T19:18:43;20.30;99.90
30851;DHT22;17567;48.382;9.102;2023-07-31T19:23:44;20.00;99.90
30851;DHT22;17567;48.382;9.102;2023-07-31T19:28:47;19.90;99.90
30851;DHT22;17567;48.382;9.102;2023-07-31T19:33:48;19.80;99.90
30851;DHT22;17567;48.382;9.102;2023-07-31T19:38:49;19.70;99.90
30851;DHT22;17567;48.382;9.102;2023-07-31T19:43:50;19.40;99.90
30851;DHT22;17567;48.382;9.102;2023-07-31T20:03:56;19.30;99.90
30851;DHT22;17567;48.382;9.102;2023-07-31T20:29:10;18.60;99.90
30851;DHT22;17567;48.382;9.102;2023-07-31T20:34:11;18.70;99.90
30851;DHT22;17567;48.382;9.102;2023-07-31T20:39:12;18.50;99.90
30851;DHT22;17567;48.382;9.102;2023-07-31T20:59:20;17.90;99.90
30851;DHT22;17567;48.382;9.102;2023-07-31T21:04:21;17.90;99.90
30851;DHT22;17567;48.382;9.102;2023-07-31T21:09:22;17.70;99.90
30851;DHT22;17567;48.382;9.102;2023-07-31T21:14:22;17.70;99.90
30851;DHT22;17567;48.382;9.102;2023-07-31T21:19:23;17.60;99.90
30851;DHT22;17567;48.382;9.102;2023-07-31T21:24:23;17.60;99.90
30851;DHT22;17567;48.382;9.102;2023-07-31T21:29:24;17.60;99.90
30851;DHT22;17567;48.382;9.102;2023-07-31T21:34:27;17.60;99.90
30851;DHT22;17567;48.382;9.102;2023-07-31T21:39:28;17.60;99.90
30851;DHT22;17567;48.382;9.102;2023-07-31T21:44:28;17.50;99.90
30851;DHT22;17567;48.382;9.102;2023-07-31T21:49:29;17.60;99.90
30851;DHT22;17567;48.382;9.102;2023-07-31T21:54:30;17.50;99.90
30851;DHT22;17567;48.382;9.102;2023-07-31T21:59:31;17.50;99.90
30851;DHT22;17567;48.382;9.102;2023-07-31T22:24:38;17.50;99.90
30851;DHT22;17567;48.382;9.102;2023-07-31T22:29:40;17.60;99.90
30851;DHT22;17567;48.382;9.102;2023-07-31T23:04:53;17.70;99.90
30851;DHT22;17567;48.382;9.102;2023-07-31T23:09:54;17.70;99.90
30851;DHT22;17567;48.382;9.102;2023-07-31T23:14:55;17.40;99.90
30851;DHT22;17567;48.382;9.102;2023-07-31T23:19:56;17.60;99.90
30851;DHT22;17567;48.382;9.102;2023-07-31T23:24:57;17.50;99.90
30851;DHT22;17567;48.382;9.102;2023-07-31T23:29:57;17.50;99.90
30851;DHT22;17567;48.382;9.102;2023-07-31T23:34:58;17.50;99.90
30851;DHT22;17567;48.382;9.102;2023-07-31T23:39:59;17.50;99.90
30851;DHT22;17567;48.382;9.102;2023-07-31T23:44:59;17.40;99.90
30851;DHT22;17567;48.382;9.102;2023-07-31T23:50:00;17.30;99.90
30851;DHT22;17567;48.382;9.102;2023-07-31T23:55:01;17.30;99.90
